createdAt,value
2019-02-26T00:00:31.053Z,9.33
2019-02-26T00:03:02.314Z,13.13
2019-02-26T00:05:30.794Z,11.77
2019-02-26T00:08:00.821Z,17.20
2019-02-26T00:10:31.534Z,11.83
2019-02-26T00:13:00.281Z,9.77
2019-02-26T00:15:31.298Z,9.83
2019-02-26T00:17:58.933Z,13.13
2019-02-26T00:20:29.190Z,10.90
2019-02-26T00:22:59.420Z,10.93
2019-02-26T00:25:27.804Z,13.60
2019-02-26T00:27:56.916Z,15.00
2019-02-26T00:30:26.422Z,11.27
2019-02-26T00:32:55.433Z,13.37
2019-02-26T00:35:25.787Z,14.77
2019-02-26T00:37:55.783Z,13.60
2019-02-26T00:40:24.407Z,10.70
2019-02-26T00:42:56.509Z,11.37
2019-02-26T00:45:26.967Z,11.70
2019-02-26T00:47:53.194Z,13.60
2019-02-26T00:50:21.635Z,14.80
2019-02-26T00:52:52.132Z,11.47
2019-02-26T00:55:23.154Z,14.53
2019-02-26T00:57:50.423Z,12.70
2019-02-26T01:00:18.896Z,16.10
2019-02-26T01:02:47.336Z,13.63
2019-02-26T01:05:16.615Z,16.57
2019-02-26T01:07:47.419Z,15.50
2019-02-26T01:10:18.463Z,15.10
2019-02-26T01:12:46.233Z,14.80
2019-02-26T01:15:17.081Z,19.10
2019-02-26T01:17:45.755Z,13.47
2019-02-26T01:20:15.835Z,13.23
2019-02-26T01:22:45.377Z,13.10
2019-02-26T01:25:15.882Z,13.27
2019-02-26T01:27:45.985Z,13.07
2019-02-26T01:30:20.658Z,18.80
2019-02-26T01:32:46.070Z,16.30
2019-02-26T01:35:14.644Z,16.60
2019-02-26T01:37:43.082Z,14.40
2019-02-26T01:40:15.833Z,15.60
2019-02-26T01:42:47.201Z,14.93
2019-02-26T01:45:13.971Z,16.83
2019-02-26T01:47:43.464Z,17.50
2019-02-26T01:50:15.756Z,15.07
2019-02-26T01:52:43.573Z,18.23
2019-02-26T01:55:12.365Z,13.30
2019-02-26T01:57:43.597Z,18.87
2019-02-26T02:00:20.021Z,13.60
2019-02-26T02:02:48.487Z,14.27
2019-02-26T02:05:19.073Z,10.50
2019-02-26T02:07:49.586Z,15.33
2019-02-26T02:10:17.410Z,13.70
2019-02-26T02:12:46.028Z,14.53
2019-02-26T02:15:20.399Z,13.93
2019-02-26T02:17:47.726Z,13.70
2019-02-26T02:20:21.283Z,15.33
2019-02-26T02:22:47.098Z,12.53
2019-02-26T02:25:15.735Z,12.50
2019-02-26T02:27:47.537Z,11.03
2019-02-26T02:30:23.088Z,12.20
2019-02-26T02:32:54.076Z,15.77
2019-02-26T02:35:19.250Z,14.53
2019-02-26T02:37:48.164Z,12.37
2019-02-26T02:40:16.699Z,14.67
2019-02-26T02:42:48.414Z,12.73
2019-02-26T02:45:19.627Z,13.10
2019-02-26T02:47:45.536Z,13.23
2019-02-26T02:50:16.159Z,13.50
2019-02-26T02:52:44.885Z,13.70
2019-02-26T02:55:16.462Z,11.23
2019-02-26T02:57:43.552Z,14.30
2019-02-26T03:00:13.491Z,12.50
2019-02-26T03:02:43.394Z,14.30
2019-02-26T03:05:13.618Z,12.20
2019-02-26T03:07:44.927Z,11.50
2019-02-26T03:10:14.164Z,10.47
2019-02-26T03:12:44.100Z,12.30
2019-02-26T03:15:14.874Z,13.07
2019-02-26T03:17:43.394Z,12.30
2019-02-26T03:20:12.944Z,13.93
2019-02-26T03:22:43.161Z,15.00
2019-02-26T03:25:21.131Z,14.60
2019-02-26T03:27:48.060Z,12.20
2019-02-26T03:30:31.477Z,11.20
2019-02-26T03:32:58.274Z,11.23
2019-02-26T03:35:23.278Z,9.40
2019-02-26T03:37:54.917Z,10.93
2019-02-26T03:40:24.022Z,13.40
2019-02-26T03:42:52.027Z,11.77
2019-02-26T03:45:24.781Z,12.50
2019-02-26T03:47:51.953Z,13.93
2019-02-26T03:50:20.467Z,10.90
2019-02-26T03:52:48.913Z,12.30
2019-02-26T03:55:18.988Z,14.60
2019-02-26T03:57:50.621Z,11.60
2019-02-26T04:00:19.918Z,13.73
2019-02-26T04:02:51.279Z,14.20
2019-02-26T04:05:19.125Z,20.53
2019-02-26T04:07:51.685Z,16.37
2019-02-26T04:10:17.709Z,18.03
2019-02-26T04:12:48.712Z,18.20
2019-02-26T04:15:17.515Z,14.50
2019-02-26T04:17:46.099Z,16.30
2019-02-26T04:20:15.988Z,15.40
2019-02-26T04:22:47.092Z,16.33
2019-02-26T04:25:29.967Z,16.23
2019-02-26T04:28:01.849Z,13.90
2019-02-26T04:30:39.253Z,16.03
2019-02-26T04:33:32.833Z,14.13
2019-02-26T04:36:22.369Z,15.83
2019-02-26T04:39:26.657Z,15.03
2019-02-26T04:42:19.742Z,15.87
2019-02-26T04:45:08.894Z,17.20
2019-02-26T04:47:40.858Z,14.13
2019-02-26T04:50:09.455Z,19.10
2019-02-26T04:52:40.664Z,15.57
2019-02-26T04:55:08.880Z,16.17
2019-02-26T04:57:39.411Z,17.53
2019-02-26T05:00:10.531Z,20.17
2019-02-26T05:02:39.283Z,16.07
2019-02-26T05:05:08.338Z,15.93
2019-02-26T05:07:38.489Z,14.70
2019-02-26T05:10:07.851Z,16.80
2019-02-26T05:12:37.881Z,17.93
2019-02-26T05:15:11.577Z,14.37
2019-02-26T05:17:37.446Z,16.83
2019-02-26T05:20:09.753Z,16.20
2019-02-26T05:22:36.676Z,18.60
2019-02-26T05:25:07.349Z,16.23
2019-02-26T05:27:38.926Z,19.87
2019-02-26T05:30:09.772Z,17.43
2019-02-26T05:32:39.236Z,20.27
2019-02-26T05:35:07.719Z,17.40
2019-02-26T05:37:38.221Z,18.27
2019-02-26T05:40:10.735Z,14.23
2019-02-26T05:42:37.566Z,13.40
2019-02-26T05:45:09.139Z,14.53
2019-02-26T05:47:36.986Z,18.50
2019-02-26T05:50:14.297Z,14.30
2019-02-26T05:52:39.947Z,17.17
2019-02-26T05:55:08.737Z,19.73
2019-02-26T05:57:37.156Z,15.47
2019-02-26T06:00:08.633Z,14.77
2019-02-26T06:02:40.119Z,14.53
2019-02-26T06:05:09.095Z,15.83
2019-02-26T06:07:38.821Z,18.97
2019-02-26T06:10:07.698Z,15.30
2019-02-26T06:12:38.219Z,15.43
2019-02-26T06:15:08.190Z,14.93
2019-02-26T06:17:40.603Z,21.43
2019-02-26T06:20:19.280Z,16.20
2019-02-26T06:22:47.806Z,16.90
2019-02-26T06:25:23.002Z,16.53
2019-02-26T06:27:46.438Z,16.53
2019-02-26T06:30:15.252Z,16.70
2019-02-26T06:32:44.743Z,17.10
2019-02-26T06:35:16.559Z,13.90
2019-02-26T06:37:45.951Z,20.83
2019-02-26T06:40:18.807Z,24.43
2019-02-26T06:42:47.216Z,17.30
2019-02-26T06:45:16.781Z,18.00
2019-02-26T06:47:47.894Z,15.83
2019-02-26T06:50:18.456Z,14.53
2019-02-26T06:52:47.651Z,18.33
2019-02-26T06:55:15.967Z,17.63
2019-02-26T06:57:47.233Z,19.13
2019-02-26T07:00:16.859Z,15.80
2019-02-26T07:02:46.382Z,16.43
2019-02-26T07:05:15.277Z,14.90
2019-02-26T07:07:43.705Z,14.93
2019-02-26T07:10:18.378Z,13.60
2019-02-26T07:12:45.475Z,13.50
2019-02-26T07:15:15.875Z,15.47
2019-02-26T07:17:46.054Z,14.93
2019-02-26T07:20:14.757Z,14.93
2019-02-26T07:22:44.024Z,15.17
2019-02-26T07:25:15.975Z,18.27
2019-02-26T07:27:43.613Z,15.83
2019-02-26T07:30:12.714Z,14.33
2019-02-26T07:32:43.061Z,16.20
2019-02-26T07:35:13.762Z,21.43
2019-02-26T07:37:41.492Z,16.47
2019-02-26T07:40:15.303Z,20.90
2019-02-26T07:42:44.702Z,19.63
2019-02-26T07:45:15.398Z,16.70
2019-02-26T07:47:45.178Z,15.73
2019-02-26T07:50:14.727Z,14.87
2019-02-26T07:52:44.163Z,14.07
2019-02-26T07:55:14.912Z,13.97
2019-02-26T07:57:45.317Z,20.27
2019-02-26T08:00:21.254Z,18.63
2019-02-26T08:02:51.441Z,17.63
2019-02-26T08:05:21.344Z,24.50
2019-02-26T08:07:51.908Z,20.23
2019-02-26T08:10:20.570Z,22.07
2019-02-26T08:12:49.002Z,21.40
2019-02-26T08:15:17.590Z,22.63
2019-02-26T08:17:50.285Z,20.30
2019-02-26T08:20:16.361Z,18.70
2019-02-26T08:22:44.846Z,25.33
2019-02-26T08:25:13.954Z,19.10
2019-02-26T08:27:42.425Z,16.33
2019-02-26T08:30:14.878Z,19.50
2019-02-26T08:32:48.407Z,15.33
2019-02-26T08:35:18.135Z,16.17
2019-02-26T08:37:43.957Z,16.57
2019-02-26T08:40:13.442Z,18.60
2019-02-26T08:42:41.874Z,13.70
2019-02-26T08:45:17.548Z,16.10
2019-02-26T08:47:45.612Z,17.43
2019-02-26T08:50:15.030Z,16.30
2019-02-26T08:52:44.847Z,14.80
2019-02-26T08:55:16.120Z,18.93
2019-02-26T08:57:45.156Z,16.33
2019-02-26T09:00:18.472Z,17.40
2019-02-26T09:02:50.590Z,14.83
2019-02-26T09:05:17.197Z,14.77
2019-02-26T09:07:47.493Z,14.50
2019-02-26T09:10:17.876Z,12.97
2019-02-26T09:12:48.636Z,14.90
2019-02-26T09:15:18.448Z,13.70
2019-02-26T09:17:46.978Z,14.50
2019-02-26T09:20:19.418Z,13.17
2019-02-26T09:22:50.703Z,11.63
2019-02-26T09:25:20.366Z,13.67
2019-02-26T09:27:48.441Z,12.10
2019-02-26T09:30:19.282Z,11.70
2019-02-26T09:32:47.980Z,11.20
2019-02-26T09:35:25.328Z,11.43
2019-02-26T09:37:52.707Z,12.43
2019-02-26T09:40:23.430Z,12.53
2019-02-26T09:42:54.226Z,15.63
2019-02-26T09:45:29.977Z,12.57
2019-02-26T09:47:58.461Z,12.63
2019-02-26T09:50:26.948Z,15.40
2019-02-26T09:52:58.619Z,13.57
2019-02-26T09:55:25.551Z,13.20
2019-02-26T09:57:54.013Z,12.80
2019-02-26T10:00:26.055Z,15.00
2019-02-26T10:02:53.248Z,12.77
2019-02-26T10:05:21.660Z,12.50
2019-02-26T10:07:52.235Z,11.73
2019-02-26T10:10:22.336Z,13.93
2019-02-26T10:12:53.377Z,14.00
2019-02-26T10:15:21.104Z,16.50
2019-02-26T10:17:49.555Z,13.33
2019-02-26T10:20:27.863Z,13.00
2019-02-26T10:22:57.212Z,13.60
2019-02-26T10:25:25.709Z,13.70
2019-02-26T10:27:53.940Z,14.43
2019-02-26T10:30:22.558Z,14.90
2019-02-26T10:32:51.049Z,14.33
2019-02-26T10:35:25.572Z,16.10
2019-02-26T10:37:53.286Z,14.90
2019-02-26T10:40:22.007Z,13.20
2019-02-26T10:42:50.485Z,13.93
2019-02-26T10:45:27.948Z,12.70
2019-02-26T10:47:58.726Z,14.50
2019-02-26T10:50:31.354Z,15.53
2019-02-26T10:53:01.417Z,12.43
2019-02-26T10:55:35.273Z,13.90
2019-02-26T10:57:58.684Z,12.53
2019-02-26T11:00:32.139Z,11.80
2019-02-26T11:02:59.132Z,14.37
2019-02-26T11:05:27.597Z,11.30
2019-02-26T11:07:59.757Z,14.23
2019-02-26T11:10:26.316Z,13.33
2019-02-26T11:12:58.603Z,17.33
2019-02-26T11:15:26.934Z,14.07
2019-02-26T11:17:55.911Z,14.20
2019-02-26T11:20:27.837Z,13.90
2019-02-26T11:22:54.678Z,18.80
2019-02-26T11:25:24.811Z,15.40
2019-02-26T11:27:53.365Z,13.47
2019-02-26T11:30:25.891Z,12.80
2019-02-26T11:32:56.150Z,12.73
2019-02-26T11:35:24.639Z,13.47
2019-02-26T11:37:55.394Z,17.37
2019-02-26T11:40:30.235Z,11.10
2019-02-26T11:42:59.777Z,10.83
2019-02-26T11:45:27.912Z,13.57
2019-02-26T11:47:58.048Z,11.13
2019-02-26T11:50:28.209Z,12.87
2019-02-26T11:52:57.292Z,11.10
2019-02-26T11:55:26.882Z,10.87
2019-02-26T11:57:56.052Z,12.53
2019-02-26T12:00:42.808Z,11.70
2019-02-26T12:03:11.176Z,11.00
2019-02-26T12:05:41.744Z,9.87
2019-02-26T12:08:11.544Z,10.83
2019-02-26T12:10:40.608Z,11.20
2019-02-26T12:13:09.214Z,11.30
2019-02-26T12:15:39.842Z,10.53
2019-02-26T12:18:09.891Z,11.30
2019-02-26T12:20:40.500Z,12.40
2019-02-26T12:23:10.643Z,10.30
2019-02-26T12:25:38.659Z,10.40
2019-02-26T12:28:08.231Z,10.47
2019-02-26T12:30:38.260Z,9.03
2019-02-26T12:33:09.947Z,8.47
2019-02-26T12:35:38.676Z,12.07
2019-02-26T12:38:18.277Z,8.43
2019-02-26T12:40:40.699Z,7.80
2019-02-26T12:43:11.122Z,7.67
2019-02-26T12:45:40.514Z,6.73
2019-02-26T12:48:10.299Z,6.93
2019-02-26T12:50:40.328Z,6.47
2019-02-26T12:53:12.556Z,5.90
2019-02-26T12:55:42.066Z,5.83
2019-02-26T12:58:11.348Z,6.93
2019-02-26T13:00:41.938Z,7.27
2019-02-26T13:03:12.833Z,6.67
2019-02-26T13:05:42.317Z,6.10
2019-02-26T13:08:12.528Z,6.90
2019-02-26T13:10:42.565Z,7.47
2019-02-26T13:13:10.494Z,7.30
2019-02-26T13:15:38.944Z,7.33
2019-02-26T13:18:07.374Z,8.67
2019-02-26T13:20:35.788Z,11.37
2019-02-26T13:23:20.725Z,8.13
2019-02-26T13:25:34.415Z,8.93
2019-02-26T13:28:02.827Z,9.10
2019-02-26T13:30:31.252Z,13.93
2019-02-26T13:33:00.911Z,9.50
2019-02-26T13:35:29.980Z,7.23
2019-02-26T13:38:00.154Z,9.47
2019-02-26T13:40:28.592Z,9.40
2019-02-26T13:45:28.081Z,17.00
2019-02-26T13:48:01.111Z,7.60
2019-02-26T13:50:31.136Z,8.80
2019-02-26T13:52:59.720Z,6.70
2019-02-26T13:55:28.118Z,7.60
2019-02-26T13:57:56.633Z,6.90
2019-02-26T14:00:26.713Z,7.37
2019-02-26T14:02:55.442Z,8.53
2019-02-26T14:05:23.857Z,6.87
2019-02-26T14:07:52.473Z,7.63
2019-02-26T14:10:22.222Z,11.27
2019-02-26T14:12:50.719Z,8.50
2019-02-26T14:15:24.460Z,8.00
2019-02-26T14:17:53.290Z,7.10
2019-02-26T14:20:21.800Z,8.33
2019-02-26T14:22:50.234Z,8.27
2019-02-26T14:25:18.817Z,8.57
2019-02-26T14:27:47.248Z,10.40
2019-02-26T14:30:21.972Z,6.87
2019-02-26T14:32:50.446Z,8.30
2019-02-26T14:35:19.035Z,8.43
2019-02-26T14:37:47.451Z,7.43
2019-02-26T14:40:17.896Z,6.90
2019-02-26T14:42:46.382Z,6.10
2019-02-26T14:45:17.410Z,8.07
2019-02-26T14:47:45.846Z,8.17
2019-02-26T14:50:21.466Z,8.33
2019-02-26T14:52:49.960Z,8.43
2019-02-26T14:55:18.633Z,7.93
2019-02-26T14:57:47.202Z,8.77
2019-02-26T15:00:29.624Z,7.67
2019-02-26T15:02:58.104Z,9.27
2019-02-26T15:05:26.643Z,8.63
2019-02-26T15:07:55.109Z,8.97
2019-02-26T15:10:23.669Z,8.67
2019-02-26T15:12:52.160Z,8.80
2019-02-26T15:15:21.105Z,8.33
2019-02-26T15:17:49.529Z,8.50
2019-02-26T15:20:24.326Z,7.97
2019-02-26T15:22:53.006Z,7.47
2019-02-26T15:25:24.613Z,7.13
2019-02-26T15:27:53.305Z,8.80
2019-02-26T15:30:22.354Z,7.90
2019-02-26T15:32:50.820Z,7.33
2019-02-26T15:35:19.398Z,9.53
2019-02-26T15:37:47.984Z,8.10
2019-02-26T15:40:20.716Z,8.43
2019-02-26T15:42:52.341Z,8.13
2019-02-26T15:45:28.898Z,11.30
2019-02-26T15:47:57.629Z,9.20
2019-02-26T15:50:26.112Z,9.40
2019-02-26T15:52:54.626Z,8.83
2019-02-26T15:55:28.821Z,9.30
2019-02-26T15:57:56.989Z,8.80
2019-02-26T16:00:25.947Z,9.97
2019-02-26T16:02:58.961Z,12.80
2019-02-26T16:05:31.761Z,9.80
2019-02-26T16:08:00.179Z,9.77
2019-02-26T16:10:28.753Z,9.57
2019-02-26T16:12:58.833Z,9.97
2019-02-26T16:15:27.268Z,11.23
2019-02-26T16:17:58.370Z,14.03
2019-02-26T16:20:25.847Z,10.57
2019-02-26T16:22:54.319Z,11.00
2019-02-26T16:25:22.775Z,10.77
2019-02-26T16:27:51.702Z,8.60
2019-02-26T16:30:22.920Z,10.63
2019-02-26T16:32:51.735Z,10.83
2019-02-26T16:35:20.309Z,10.20
2019-02-26T16:37:48.772Z,9.13
2019-02-26T16:40:18.234Z,10.10
2019-02-26T16:42:47.292Z,11.30
2019-02-26T16:45:20.932Z,9.17
2019-02-26T16:47:49.515Z,9.70
2019-02-26T16:50:20.511Z,9.83
2019-02-26T16:52:49.175Z,9.67
2019-02-26T16:55:17.751Z,9.63
2019-02-26T16:57:46.455Z,10.07
2019-02-26T17:00:28.706Z,12.57
2019-02-26T17:02:59.774Z,10.80
2019-02-26T17:05:27.437Z,10.37
2019-02-26T17:07:56.160Z,10.67
2019-02-26T17:10:29.044Z,10.20
2019-02-26T17:12:55.799Z,14.30
2019-02-26T17:15:34.442Z,16.20
2019-02-26T17:18:02.929Z,12.90
2019-02-26T17:20:31.437Z,12.70
2019-02-26T17:22:59.902Z,14.40
2019-02-26T17:25:29.047Z,12.53
2019-02-26T17:27:57.647Z,13.10
2019-02-26T17:30:26.213Z,13.27
2019-02-26T17:32:54.821Z,13.77
2019-02-26T17:35:23.342Z,16.33
2019-02-26T17:37:51.920Z,19.03
2019-02-26T17:40:27.141Z,14.10
2019-02-26T17:42:55.585Z,18.67
2019-02-26T17:45:29.605Z,18.23
2019-02-26T17:47:58.154Z,15.30
2019-02-26T17:50:37.656Z,18.70
2019-02-26T17:53:06.303Z,16.23
2019-02-26T17:55:34.893Z,19.57
2019-02-26T17:58:03.542Z,16.97
2019-02-26T18:00:36.797Z,14.73
2019-02-26T18:03:07.392Z,20.80
2019-02-26T18:05:40.470Z,18.20
2019-02-26T18:08:05.646Z,18.60
2019-02-26T18:10:34.209Z,17.80
2019-02-26T18:13:02.683Z,20.83
2019-02-26T18:15:31.098Z,15.87
2019-02-26T18:17:59.672Z,17.77
2019-02-26T18:20:28.792Z,18.13
2019-02-26T18:22:59.965Z,17.07
2019-02-26T18:25:27.646Z,19.23
2019-02-26T18:27:56.106Z,21.00
2019-02-26T18:30:27.715Z,17.40
2019-02-26T18:32:58.871Z,18.43
2019-02-26T18:35:26.389Z,18.87
2019-02-26T18:37:54.927Z,20.10
2019-02-26T18:40:27.944Z,19.30
2019-02-26T18:42:53.670Z,19.77
2019-02-26T18:45:32.714Z,18.87
2019-02-26T18:48:01.440Z,20.93
2019-02-26T18:50:30.127Z,20.77
2019-02-26T18:52:58.781Z,18.13
2019-02-26T18:55:28.342Z,18.03
2019-02-26T18:57:58.023Z,18.97
2019-02-26T19:00:31.523Z,19.63
2019-02-26T19:03:00.211Z,19.00
2019-02-26T19:05:28.836Z,19.60
2019-02-26T19:07:58.811Z,22.37
2019-02-26T19:10:27.508Z,20.73
2019-02-26T19:12:56.138Z,17.23
2019-02-26T19:15:27.460Z,16.73
2019-02-26T19:17:57.059Z,17.43
2019-02-26T19:20:36.058Z,18.20
2019-02-26T19:23:04.631Z,18.37
2019-02-26T19:25:33.366Z,13.87
2019-02-26T19:28:02.078Z,14.13
2019-02-26T19:30:30.770Z,15.97
2019-02-26T19:32:59.389Z,17.80
2019-02-26T19:35:28.053Z,13.53
2019-02-26T19:37:59.033Z,17.87
2019-02-26T19:40:39.011Z,14.10
2019-02-26T19:43:07.294Z,17.30
2019-02-26T19:45:36.080Z,15.13
2019-02-26T19:48:04.650Z,18.60
2019-02-26T19:50:33.333Z,17.37
2019-02-26T19:53:02.609Z,16.33
2019-02-26T19:55:34.774Z,13.57
2019-02-26T19:58:06.546Z,14.27
2019-02-26T20:00:33.653Z,14.27
2019-02-26T20:03:04.914Z,17.20
2019-02-26T20:05:32.604Z,13.77
2019-02-26T20:08:04.852Z,14.57
2019-02-26T20:10:31.693Z,16.00
2019-02-26T20:13:01.357Z,15.13
2019-02-26T20:15:30.546Z,18.17
2019-02-26T20:17:59.249Z,16.40
2019-02-26T20:20:27.861Z,17.90
2019-02-26T20:22:56.427Z,20.23
2019-02-26T20:25:25.035Z,16.60
2019-02-26T20:27:55.157Z,22.23
2019-02-26T20:30:24.447Z,21.20
2019-02-26T20:32:52.993Z,23.27
2019-02-26T20:35:21.550Z,29.23
2019-02-26T20:37:50.052Z,24.30
2019-02-26T20:40:22.648Z,24.20
2019-02-26T20:42:51.353Z,22.43
2019-02-26T20:45:22.569Z,20.40
2019-02-26T20:47:51.119Z,22.63
2019-02-26T20:50:21.226Z,23.17
2019-02-26T20:52:50.140Z,20.70
2019-02-26T20:55:24.092Z,20.10
2019-02-26T20:57:52.867Z,24.20
2019-02-26T21:00:25.009Z,21.87
2019-02-26T21:02:51.733Z,22.90
2019-02-26T21:05:20.211Z,27.30
2019-02-26T21:07:49.640Z,20.10
2019-02-26T21:10:19.435Z,18.47
2019-02-26T21:12:48.093Z,23.73
2019-02-26T21:15:18.445Z,25.17
2019-02-26T21:17:47.116Z,21.03
2019-02-26T21:20:15.743Z,21.40
2019-02-26T21:22:44.226Z,24.97
2019-02-26T21:25:14.082Z,21.70
2019-02-26T21:27:42.760Z,18.13
2019-02-26T21:30:24.373Z,20.00
2019-02-26T21:32:53.060Z,19.00
2019-02-26T21:35:21.593Z,27.03
2019-02-26T21:37:50.128Z,21.33
2019-02-26T21:40:18.610Z,28.97
2019-02-26T21:42:47.327Z,21.87
2019-02-26T21:45:17.841Z,18.20
2019-02-26T21:47:46.715Z,21.00
2019-02-26T21:50:16.121Z,22.13
2019-02-26T21:52:59.137Z,20.43
2019-02-26T21:55:16.418Z,21.27
2019-02-26T21:57:45.065Z,25.40
2019-02-26T22:00:16.920Z,20.60
2019-02-26T22:02:45.614Z,17.90
2019-02-26T22:05:14.296Z,16.80
2019-02-26T22:07:44.407Z,24.33
2019-02-26T22:10:17.837Z,18.27
2019-02-26T22:12:46.447Z,18.73
2019-02-26T22:15:16.830Z,18.43
2019-02-26T22:17:45.457Z,20.70
2019-02-26T22:20:23.717Z,17.63
2019-02-26T22:22:48.786Z,22.13
2019-02-26T22:25:17.634Z,17.20
2019-02-26T22:27:46.286Z,17.30
2019-02-26T22:30:21.535Z,19.70
2019-02-26T22:32:48.538Z,18.07
2019-02-26T22:35:17.006Z,19.43
2019-02-26T22:37:45.633Z,18.90
2019-02-26T22:40:14.746Z,19.47
2019-02-26T22:42:43.352Z,18.90
2019-02-26T22:45:15.716Z,19.63
2019-02-26T22:47:44.620Z,18.57
2019-02-26T22:50:14.588Z,16.70
2019-02-26T22:52:43.852Z,19.27
2019-02-26T22:55:17.304Z,18.00
2019-02-26T22:57:46.355Z,16.97
2019-02-26T23:00:55.512Z,18.17
2019-02-26T23:03:24.176Z,16.77
2019-02-26T23:05:52.705Z,16.60
2019-02-26T23:08:21.350Z,20.97
2019-02-26T23:10:51.332Z,17.20
2019-02-26T23:13:19.995Z,17.23
2019-02-26T23:15:48.484Z,16.50
2019-02-26T23:18:18.095Z,18.00
2019-02-26T23:20:46.715Z,18.17
2019-02-26T23:23:15.630Z,19.57
2019-02-26T23:25:44.174Z,20.47
2019-02-26T23:28:12.609Z,17.33
2019-02-26T23:30:41.595Z,20.07
2019-02-26T23:33:10.268Z,18.13
2019-02-26T23:35:38.792Z,17.23
2019-02-26T23:38:08.476Z,17.93
2019-02-26T23:40:37.651Z,20.47
2019-02-26T23:43:06.153Z,16.93
2019-02-26T23:45:34.832Z,22.17
2019-02-26T23:48:07.728Z,23.17
2019-02-26T23:50:33.416Z,20.67
2019-02-26T23:53:01.829Z,16.83
2019-02-26T23:55:30.277Z,19.20
2019-02-26T23:57:58.756Z,18.57
